Weather reports worldwide

Advertisment
Besancon, France (7288): temperature & dewpoint: 10.06.2019 13:00:00 - 16.06.2019 13:00:00 (CEST)Besancon, France (7288): temperature 5cm: 10.06.2019 13:00:00 - 16.06.2019 13:00:00 (CEST)Besancon, France (7288): temperature -20cm & temperature -100cm: 10.06.2019 13:00:00 - 16.06.2019 13:00:00 (CEST)Besancon, France (7288): wind speed & gusts: 10.06.2019 13:00:00 - 16.06.2019 13:00:00 (CEST)Besancon, France (7288): wind direction: 10.06.2019 13:00:00 - 16.06.2019 13:00:00 (CEST)Besancon, France (7288): reduced air pressure: 10.06.2019 13:00:00 - 16.06.2019 13:00:00 (CEST)Besancon, France (7288): sunshine duration: 10.06.2019 13:00:00 - 16.06.2019 13:00:00 (CEST)Besancon, France (7288): precipitation: 10.06.2019 13:00:00 - 16.06.2019 13:00:00 (CEST)
Date & Time tt [°C] td [°C] tt 5cm [°C] tt -20cm [°C] tt -100cm [°C] ff [km/h] ff [kn] fx [km/h] fx [kn] dd ppp [hPa] sd [min] rr [mm]
16.06.2019 13:00:00 20,6 11,8 24,8 17,7 15,3 4 2 13 7 E 1021,9 54 0,0
16.06.2019 12:00:00 18,1 11,9 21,3 17,7 15,3 5 3 11 6 N 1022,6 15 0,0
16.06.2019 11:00:00 16,8 11,9 19,8 17,7 15,3 3 2 12 6 N 1022,7 7 0,0
16.06.2019 10:00:00 16,5 12,8 16,1 17,7 15,3 5 3 10 5 W 1022,9 31 0,0
16.06.2019 09:00:00 15,5 12,6 16,4 17,7 15,3 5 3 12 6 W 1022,9 47 0,0
16.06.2019 08:00:00 14,4 13,6 14,4 17,8 15,3 3 2 8 4 WSW 1022,9 1 0,0
16.06.2019 07:00:00 13,9 13,3 13,6 17,8 15,3 0 0 4 2 N 1022,5 0 0,0
16.06.2019 06:00:00 13,8 13,2 13,2 17,8 15,3 0 0 3 2 N 1022,3 0 0,0
16.06.2019 05:00:00 13,5 12,7 13,2 17,9 15,3 0 0 4 2 N 1022,0 0 0,2
16.06.2019 04:00:00 13,9 12,9 13,4 17,9 15,3 0 0 11 6 N 1021,6 0 0,6
16.06.2019 03:00:00 14,4 13,4 13,6 18,0 15,3 5 3 13 7 W 1021,6 0 0,0
16.06.2019 02:00:00 14,1 13,1 13,0 18,0 15,3 0 0 7 4 N 1021,5 0 0,0
16.06.2019 01:00:00 13,8 12,7 12,4 18,1 15,3 0 0 6 3 N 1021,4 0 0,0
16.06.2019 00:00:00 14,3 13,0 12,8 18,0 15,3 2 1 6 3 S 1021,0 0 0,2
15.06.2019 23:00:00 14,4 13,3 13,6 18,1 15,3 0 0 11 6 N 1020,6 0 0,0
15.06.2019 22:00:00 14,8 13,3 14,0 18,1 15,3 5 3 15 8 SSW 1020,2 0 0,0
15.06.2019 21:00:00 15,2 13,4 14,4 18,0 15,3 2 1 11 6 WSW 1019,4 0 0,2
15.06.2019 20:00:00 15,9 12,5 15,5 18,0 15,3 6 3 18 10 W 1019,0 0 0,0
15.06.2019 19:00:00 16,3 12,3 16,1 17,9 15,3 7 4 32 17 W 1018,8 0 0,0
15.06.2019 18:00:00 19,7 13,4 20,3 17,8 15,3 7 4 16 9 SW 1017,0 0 0,0
15.06.2019 17:00:00 20,0 13,2 22,1 17,7 15,3 2 1 11 6 SW 1016,7 0 0,0
15.06.2019 16:00:00 20,7 13,2 28,5 17,6 15,3 4 2 18 10 WNW 1016,6 33 0,0
15.06.2019 15:00:00 19,5 13,9 22,9 17,5 15,3 6 4 13 7 NW 1017,3 4 0,0
15.06.2019 14:00:00 19,3 13,9 25,3 17,4 15,3 6 3 13 7 WSW 1017,3 1 0,0
15.06.2019 13:00:00 18,8 13,6 23,0 17,4 15,3 8 4 18 10 WNW 1017,7 0 0,0
15.06.2019 12:00:00 18,4 13,3 21,6 17,4 15,3 8 4 20 11 W 1017,6 12 0,0
15.06.2019 11:00:00 17,8 13,5 20,3 17,3 15,3 6 3 18 10 WSW 1017,7 8 0,0
15.06.2019 10:00:00 17,0 13,7 17,9 17,3 15,3 8 4 19 10 SW 1017,8 5 0,0
15.06.2019 09:00:00 15,7 14,1 16,4 17,4 15,3 7 4 23 13 SW 1017,4 26 0,0
15.06.2019 08:00:00 15,1 14,1 14,5 17,4 15,3 6 3 13 7 SW 1016,6 6 0,0
15.06.2019 07:00:00 14,4 13,8 13,8 17,5 15,3 5 3 13 7 SW 1016,2 0 0,0
15.06.2019 06:00:00 14,4 13,8 13,9 17,5 15,3 4 2 21 11 S 1015,6 0 0,0
15.06.2019 05:00:00 14,3 13,7 12,2 17,6 15,3 7 4 16 9 WSW 1015,4 0 0,0
15.06.2019 04:00:00 14,5 13,9 13,5 17,6 15,3 0 0 8 4 N 1014,3 0 0,4
15.06.2019 03:00:00 14,9 14,1 14,4 17,6 15,3 2 1 21 12 SSE 1014,0 0 4,0
15.06.2019 02:00:00 15,5 14,2 14,9 17,6 15,2 7 4 32 17 W 1013,3 0 0,0
15.06.2019 01:00:00 16,0 15,2 13,1 17,7 15,3 9 5 18 10 SW 1012,0 0 0,0
15.06.2019 00:00:00 16,1 15,0 13,5 17,7 15,2 0 0 17 9 N 1010,8 0 0,0
14.06.2019 23:00:00 16,9 15,9 15,4 17,6 15,2 9 5 20 11 NNE 1010,8 0 0,0
14.06.2019 22:00:00 17,2 16,1 16,0 17,6 15,3 9 5 20 11 N 1010,5 0 0,0
14.06.2019 21:00:00 18,4 16,6 17,7 17,6 15,3 8 4 18 10 NNW 1010,3 0 0,0
14.06.2019 20:00:00 19,5 16,7 19,6 17,5 15,3 6 4 16 9 N 1010,2 0 0,0
14.06.2019 19:00:00 20,9 17,7 23,0 17,5 15,2 5 3 14 7 NNE 1010,0 43 0,0
14.06.2019 18:00:00 21,0 17,2 22,6 17,5 15,2 3 1 12 6 ENE 1010,7 20 0,0
14.06.2019 17:00:00 18,4 16,9 18,8 17,5 15,2 5 3 14 7 NNE 1012,4 0 0,0
14.06.2019 16:00:00 16,8 15,8 17,1 17,5 15,2 0 0 10 6 N 1013,7 0 0,2
14.06.2019 15:00:00 16,1 15,3 15,9 17,5 15,2 3 2 9 5 NNE 1014,9 0 1,0
14.06.2019 14:00:00 15,9 14,8 15,8 17,5 15,2 0 0 10 5 N 1016,0 0 2,5
14.06.2019 13:00:00 16,2 14,9 16,6 17,6 15,2 3 2 9 5 ESE 1015,4 0 0,8
14.06.2019 12:00:00 15,7 14,4 15,9 17,6 15,2 0 0 8 4 N 1016,5 0 1,2
14.06.2019 11:00:00 14,8 13,7 14,8 17,7 15,2 0 0 5 3 N 1018,0 0 2,2
14.06.2019 10:00:00 14,6 13,1 14,4 17,7 15,3 2 1 10 5 SW 1017,8 0 1,0
14.06.2019 09:00:00 15,1 12,4 14,0 17,8 15,2 0 0 8 4 N 1016,5 0 0,0
14.06.2019 08:00:00 15,1 10,9 13,5 17,8 15,2 0 0 5 3 N 1015,0 0 0,0
14.06.2019 07:00:00 15,2 9,8 12,6 17,9 15,2 3 1 8 4 E 1014,2 0 0,0
14.06.2019 06:00:00 14,3 9,3 11,7 18,0 15,2 3 2 6 3 NNE 1014,2 0 0,0
14.06.2019 05:00:00 14,3 8,0 9,2 18,0 15,2 3 2 7 4 NNE 1013,7 0 0,0
14.06.2019 04:00:00 14,6 6,7 7,8 18,1 15,2 3 2 9 5 NNE 1013,2 0 0,0
14.06.2019 03:00:00 14,3 7,8 7,7 18,2 15,2 0 0 6 4 N 1014,0 0 0,0
14.06.2019 02:00:00 15,3 7,3 8,2 18,3 15,2 0 0 8 5 N 1013,9 0 0,0
14.06.2019 01:00:00 14,1 9,7 8,0 18,3 15,3 2 1 9 5 NNE 1014,3 0 0,0
14.06.2019 00:00:00 14,7 9,9 8,0 18,3 15,2 2 1 5 3 N 1014,0 0 0,0
13.06.2019 23:00:00 16,4 9,8 8,9 18,3 15,2 0 0 4 2 N 1013,6 0 0,0
13.06.2019 22:00:00 17,5 9,4 10,0 18,2 15,2 0 0 6 3 N 1013,0 2 0,0
13.06.2019 21:00:00 20,9 9,8 16,0 18,1 15,2 0 0 11 6 N 1012,3 41 0,0
13.06.2019 20:00:00 23,2 7,3 21,8 18,0 15,2 6 3 16 9 N 1011,9 38 0,0
13.06.2019 19:00:00 24,7 5,0 23,1 17,8 15,2 3 1 11 6 WNW 1011,8 45 0,0
13.06.2019 18:00:00 24,8 5,5 30,7 17,6 15,2 5 3 15 8 WNW 1012,1 60 0,0
13.06.2019 17:00:00 24,5 5,3 32,1 17,4 15,2 6 3 16 9 SSW 1012,5 60 0,0
13.06.2019 16:00:00 23,8 4,7 35,5 17,2 15,2 4 2 23 12 NW 1013,1 60 0,0
13.06.2019 15:00:00 22,9 3,9 36,4 17,0 15,3 8 4 24 13 SSW 1013,7 60 0,0
13.06.2019 14:00:00 21,9 2,6 36,2 16,8 15,2 9 5 27 14 SW 1014,1 60 0,0
13.06.2019 13:00:00 20,8 5,2 35,1 16,7 15,2 10 6 23 12 SSW 1014,7 60 0,0
13.06.2019 12:00:00 19,9 6,6 30,7 16,6 15,3 7 4 23 12 WSW 1015,2 60 0,0
13.06.2019 11:00:00 19,0 7,7 26,7 16,6 15,3 7 4 19 10 SW 1015,4 60 0,0
13.06.2019 10:00:00 17,2 7,3 22,6 16,7 15,2 5 3 10 5 SW 1015,6 60 0,0
13.06.2019 09:00:00 15,7 8,7 8,3 16,8 15,3 0 0 6 3 N 1015,7 60 0,0
13.06.2019 08:00:00 10,9 8,5 5,4 17,0 15,3 2 1 5 3 ESE 1016,3 60 0,0
13.06.2019 07:00:00 8,3 7,4 3,8 17,0 15,3 2 1 6 3 NNE 1016,6 20 0,0
13.06.2019 06:00:00 8,1 7,2 3,7 17,1 15,3 3 2 5 3 NNE 1016,3 0 0,0
13.06.2019 05:00:00 8,6 7,4 3,9 17,2 15,3 0 0 5 3 N 1016,1 0 0,0
13.06.2019 04:00:00 9,8 8,1 4,7 17,3 15,3 0 0 4 2 N 1016,0 0 0,0
13.06.2019 03:00:00 11,8 7,9 6,8 17,3 15,3 0 0 11 6 N 1015,6 0 0,0
13.06.2019 02:00:00 13,7 7,5 9,8 17,4 15,3 5 3 18 10 SSW 1015,3 0 0,0
13.06.2019 01:00:00 13,9 7,6 8,7 17,4 15,3 4 2 16 8 SSW 1015,1 0 0,0
13.06.2019 00:00:00 13,0 8,9 8,1 17,4 15,3 0 0 6 3 N 1015,0 0 0,0
12.06.2019 23:00:00 14,7 8,4 8,1 17,4 15,3 0 0 10 5 N 1014,1 0 0,0
12.06.2019 22:00:00 15,1 8,8 8,5 17,3 15,3 0 0 4 2 N 1013,4 2 0,0
12.06.2019 21:00:00 19,0 8,3 14,5 17,2 15,3 2 1 16 8 WSW 1012,0 41 0,0
12.06.2019 20:00:00 20,0 7,4 19,8 17,1 15,3 8 4 26 14 SW 1011,6 51 0,0
12.06.2019 19:00:00 20,6 6,2 23,4 16,9 15,3 9 5 29 16 SW 1011,2 60 0,0
12.06.2019 18:00:00 20,4 6,7 24,8 16,8 15,3 10 6 28 15 SW 1011,4 57 0,0
12.06.2019 17:00:00 19,9 7,3 23,8 16,5 15,3 9 5 24 13 SSW 1011,7 48 0,0
12.06.2019 16:00:00 18,9 7,3 26,6 16,3 15,4 10 5 28 15 SW 1011,7 52 0,0
12.06.2019 15:00:00 18,9 7,9 28,5 16,2 15,3 15 8 31 17 WSW 1011,6 51 0,0
12.06.2019 14:00:00 18,6 7,7 23,6 16,0 15,4 9 5 26 14 SW 1012,0 46 0,0
12.06.2019 13:00:00 17,2 8,6 25,2 15,9 15,4 9 5 24 13 SW 1012,3 45 0,0
12.06.2019 12:00:00 15,9 8,6 24,0 15,9 15,4 8 4 23 12 SSW 1012,7 41 0,0
12.06.2019 11:00:00 14,9 7,7 19,9 15,8 15,4 8 5 23 12 SSW 1012,5 58 0,0
12.06.2019 10:00:00 13,4 9,4 13,9 15,9 15,4 8 4 27 14 SSW 1012,8 28 0,2
12.06.2019 09:00:00 11,6 10,2 11,0 16,0 15,4 7 4 21 12 SW 1013,0 15 0,0
12.06.2019 08:00:00 11,0 10,4 10,8 16,0 15,4 4 2 14 8 SSW 1012,5 0 1,4
12.06.2019 07:00:00 11,0 10,4 10,7 16,1 15,4 5 3 21 12 SSW 1012,6 0 3,1
12.06.2019 06:00:00 11,0 10,5 10,8 16,2 15,4 6 3 14 8 SSW 1011,7 0 3,2
12.06.2019 05:00:00 11,1 10,6 10,8 16,2 15,4 3 2 11 6 SSW 1010,9 0 3,8
12.06.2019 04:00:00 11,3 10,8 10,9 16,3 15,4 0 0 7 4 N 1011,0 0 4,1
12.06.2019 03:00:00 11,4 10,8 10,9 16,4 15,4 0 0 3 2 N 1010,6 0 1,6
12.06.2019 02:00:00 11,4 10,8 10,9 16,4 15,4 0 0 6 3 N 1011,3 0 2,4
12.06.2019 01:00:00 11,6 11,0 11,0 16,5 15,4 0 0 5 3 N 1011,8 0 2,2
12.06.2019 00:00:00 12,2 11,6 11,5 16,5 15,4 0 0 6 3 N 1012,0 0 4,7
11.06.2019 23:00:00 12,7 12,1 12,1 16,6 15,4 0 0 4 2 N 1012,0 0 3,4
11.06.2019 22:00:00 12,8 12,2 12,2 16,6 15,4 0 0 3 1 N 1011,9 0 1,0
11.06.2019 21:00:00 13,0 12,2 12,6 16,6 15,4 0 0 4 2 N 1011,5 0 0,4
11.06.2019 20:00:00 13,2 12,3 13,3 16,6 15,5 0 0 5 3 N 1011,7 0 0,0
11.06.2019 19:00:00 13,4 12,5 14,4 16,6 15,4 0 0 9 5 N 1011,6 0 0,2
11.06.2019 18:00:00 13,3 12,4 13,7 16,6 15,4 2 1 7 4 NNE 1011,8 0 0,6
11.06.2019 17:00:00 13,2 12,1 13,9 16,6 15,4 0 0 12 7 N 1012,2 0 0,8
11.06.2019 16:00:00 13,2 12,1 14,0 16,6 15,4 0 0 10 6 N 1012,3 0 2,0
11.06.2019 15:00:00 13,3 11,9 15,2 16,6 15,4 4 2 9 5 NNW 1012,2 0 0,6
11.06.2019 14:00:00 13,4 12,0 13,4 16,6 15,4 3 1 7 4 NNE 1012,4 0 0,8
11.06.2019 13:00:00 12,1 10,8 13,1 16,7 15,4 0 0 4 2 N 1013,1 0 1,6
11.06.2019 12:00:00 11,6 10,2 12,8 16,8 15,5 0 0 8 4 N 1012,9 0 1,6
11.06.2019 11:00:00 11,4 10,5 11,7 16,8 15,4 2 1 8 5 N 1012,7 0 3,0
11.06.2019 10:00:00 11,1 10,3 11,6 16,9 15,5 0 0 6 3 N 1012,8 0 2,1
11.06.2019 09:00:00 11,1 10,5 11,3 17,0 15,4 0 0 3 2 N 1012,7 0 2,4
11.06.2019 08:00:00 11,1 10,5 11,1 17,0 15,5 0 0 4 2 N 1012,5 0 1,4
11.06.2019 07:00:00 11,0 10,2 10,9 17,1 15,5 0 0 4 2 N 1012,5 0 0,4
11.06.2019 06:00:00 11,0 10,2 10,6 17,1 15,4 0 0 8 4 N 1012,5 0 0,2
11.06.2019 05:00:00 11,3 10,4 11,1 17,2 15,5 0 0 3 2 N 1013,0 0 0,0
11.06.2019 04:00:00 11,3 10,5 11,1 17,3 15,5 0 0 3 2 N 1013,8 0 0,0
11.06.2019 03:00:00 11,5 10,7 11,2 17,3 15,5 2 1 5 3 SW 1013,9 0 0,0
11.06.2019 02:00:00 11,7 10,8 11,5 17,4 15,5 0 0 4 2 N 1014,6 0 0,0
11.06.2019 01:00:00 12,0 11,1 11,6 17,4 15,5 0 0 7 4 N 1014,7 0 0,0
11.06.2019 00:00:00 12,2 11,3 11,8 17,5 15,5 0 0 5 3 N 1014,7 0 0,0
10.06.2019 23:00:00 12,4 11,5 12,1 17,5 15,5 0 0 5 3 N 1014,8 0 0,0
10.06.2019 22:00:00 12,6 11,5 12,2 17,5 15,5 0 0 4 2 N 1014,4 0 0,0
10.06.2019 21:00:00 12,7 11,4 12,5 17,6 15,5 0 0 6 3 N 1014,6 0 0,0
10.06.2019 20:00:00 12,8 11,5 12,7 17,6 15,5 0 0 14 7 N 1014,5 0 0,0
10.06.2019 19:00:00 13,4 12,0 13,5 17,6 15,4 6 3 28 15 W 1014,4 0 0,0
10.06.2019 18:00:00 15,2 14,1 14,9 17,6 15,5 6 4 17 9 WSW 1013,6 0 0,2
10.06.2019 17:00:00 14,9 13,8 14,6 17,6 15,5 7 4 14 8 SW 1014,0 0 0,2
10.06.2019 16:00:00 14,9 13,8 14,4 17,6 15,5 2 1 18 10 S 1014,0 0 0,2
10.06.2019 15:00:00 15,3 14,0 15,3 17,6 15,5 5 3 14 7 SW 1013,5 0 0,6
10.06.2019 14:00:00 15,3 13,7 15,8 17,6 15,5 7 4 14 7 SSW 1015,2 0 1,2
10.06.2019 13:00:00 15,2 14,1 15,4 17,6 15,5 0 0 5 3 N 1014,9 0 0,4

tt = temperature
td = dewpoint
tt 5cm = temperature 5cm
tt -20cm = temperature -20cm
tt -100cm = temperature -100cm
ff = wind speed
fx = gusts
dd = wind direction
ppp = reduced air pressure
sd = sunshine duration
rr = precipitation

Next stations